首页
METAR-TAF:

METAR-TAF

机场 :

羅馬-菲烏米奇諾機場

罗马菲乌米奇诺, 意大利

纬度: 41-48N, 经度: 012-14E, 海拔: 2米

当前天气观测

该预报发布于36分钟前的20:50 UTC
风速4节,风向北转东北
温度 5°C
湿度 52%
气压 1016 hPa
能见度10公里或以上
1500米以下无云,无积雨云

METAR: LIRF 012050Z 03004KT CAVOK 05/M04 Q1016 NOSIG

时间: 23:26 (21:26 UTC)

预报

该预报发布于4小时和26分钟前的17:00 UTC
预报有效从01日的 18点(UTC)到 02日的 24点(UTC)
风速7节,风向北转东北
能见度10公里或以上
少量云层高于3000英尺
成为
从 02日的 08点(UTC)到 02日的 10点(UTC)
风速10节,风向南转西南
成为
从 02日的 18点(UTC)到 02日的 20点(UTC)
风速5节,风向多变

TAF: LIRF 011700Z 0118/0224 03007KT 9999 FEW030 BECMG 0208/0210 21010KT BECMG 0218/0220 VRB05KT

超过4000个机场的气象观测和天气预报(METAR&TAF报告)。

可查询的气象台以黄色和红色小点在地图上表示。

将鼠标移到小点上方,可查看气象台名称。

然后点击查看天气观测和预报。

如需切换地图:点击带黑十字的绿色按钮放大地图;点击带横线的绿色按钮缩小地图;或者点击绿色箭头查看邻近地区的地图。


METAR-TAF: